Time;durP1;ratioP1;P1;durP2;ratioP2;P2;SDS_P1;SDS_P2;PMS_P1;PMS_P2;Temp;Humidity;BMP_temperature;BMP_pressure;BME280_temperature;BME280_humidity;BME280_pressure;Samples;Min_cycle;Max_cycle;Signal;HPM_P1;HPM_P2
2022/05/05 00:01:40;;;;;;;;;;;10.60;99.90;;;;;;5051530;28;20007;-67
2022/05/05 00:04:07;;;;;;;;;;;10.60;99.90;;;;;;5051150;28;19921;-67
2022/05/05 00:06:34;;;;;;;;;;;10.50;99.90;;;;;;5051265;28;20276;-68
2022/05/05 00:09:01;;;;;;;;;;;10.40;99.90;;;;;;5052024;28;19929;-67
2022/05/05 00:14:24;;;;;;;;;;;10.60;99.90;;;;;;5050439;28;19928;-67
2022/05/05 00:16:51;;;;;;;;;;;10.70;99.90;;;;;;5050947;28;19927;-67
2022/05/05 00:19:18;;;;;;;;;;;10.80;99.90;;;;;;5049353;28;19920;-67
2022/05/05 00:21:45;;;;;;;;;;;10.90;99.90;;;;;;5050621;28;19920;-67
2022/05/05 00:24:12;;;;;;;;;;;10.90;99.90;;;;;;5049955;28;19921;-68
2022/05/05 00:26:39;;;;;;;;;;;11.00;99.90;;;;;;5050296;28;20007;-68
2022/05/05 00:29:05;;;;;;;;;;;11.10;99.90;;;;;;5050340;28;19964;-69
2022/05/05 00:31:32;;;;;;;;;;;11.00;99.90;;;;;;5049515;28;19938;-69
2022/05/05 00:33:58;;;;;;;;;;;11.00;99.90;;;;;;5049319;28;19928;-67
2022/05/05 00:36:25;;;;;;;;;;;11.00;99.90;;;;;;5051918;28;19967;-67
2022/05/05 00:38:52;;;;;;;;;;;11.00;99.90;;;;;;5045737;28;19927;-67
2022/05/05 00:41:19;;;;;;;;;;;11.00;99.90;;;;;;5046760;28;20019;-67
2022/05/05 00:43:46;;;;;;;;;;;11.00;99.90;;;;;;5047826;28;20271;-67
2022/05/05 00:46:16;;;;;;;;;;;11.00;99.90;;;;;;5050813;28;19924;-67
2022/05/05 00:48:43;;;;;;;;;;;11.00;99.90;;;;;;5049256;28;19924;-67
2022/05/05 00:51:12;;;;;;;;;;;11.00;99.90;;;;;;5049133;28;19931;-67
2022/05/05 00:53:39;;;;;;;;;;;11.10;99.90;;;;;;5039808;28;20377;-67
2022/05/05 00:56:07;;;;;;;;;;;11.20;99.90;;;;;;5046985;28;19920;-67
2022/05/05 00:58:34;;;;;;;;;;;11.20;99.90;;;;;;5048352;28;20386;-67
2022/05/05 01:01:03;;;;;;;;;;;11.30;99.90;;;;;;5048218;28;19921;-67
2022/05/05 01:03:34;;;;;;;;;;;11.30;99.90;;;;;;5083113;28;20003;-67
2022/05/05 01:06:01;;;;;;;;;;;11.40;99.90;;;;;;5063664;28;19932;-67
2022/05/05 01:08:28;;;;;;;;;;;11.40;99.90;;;;;;5050037;28;19927;-67
2022/05/05 01:10:54;;;;;;;;;;;11.40;99.90;;;;;;5042688;28;20023;-67
2022/05/05 01:13:21;;;;;;;;;;;11.50;99.90;;;;;;5043978;28;19921;-68
2022/05/05 01:15:49;;;;;;;;;;;11.40;99.90;;;;;;5047819;28;20609;-67
2022/05/05 01:18:15;;;;;;;;;;;11.40;99.90;;;;;;5048907;28;20330;-67
2022/05/05 01:20:45;;;;;;;;;;;11.40;99.90;;;;;;5048512;28;19947;-67
2022/05/05 01:23:12;;;;;;;;;;;11.30;99.90;;;;;;5050323;28;19927;-67
2022/05/05 01:28:26;;;;;;;;;;;11.20;99.90;;;;;;5046776;28;19924;-67
2022/05/05 01:30:52;;;;;;;;;;;11.20;99.90;;;;;;5050536;28;19921;-67
2022/05/05 01:33:23;;;;;;;;;;;11.10;99.90;;;;;;5049044;28;20011;-67
2022/05/05 01:35:51;;;;;;;;;;;11.10;99.90;;;;;;5048905;28;19925;-67
2022/05/05 01:38:19;;;;;;;;;;;11.10;99.90;;;;;;5049484;28;19964;-67
2022/05/05 01:40:48;;;;;;;;;;;11.10;99.90;;;;;;5048931;28;20326;-67
2022/05/05 01:43:20;;;;;;;;;;;11.10;99.90;;;;;;5052364;28;19947;-67
2022/05/05 01:45:47;;;;;;;;;;;11.10;99.90;;;;;;5055499;28;20593;-68
2022/05/05 01:48:13;;;;;;;;;;;11.10;99.90;;;;;;5055350;28;19924;-68
2022/05/05 01:50:40;;;;;;;;;;;11.00;99.90;;;;;;5055625;28;20035;-68
2022/05/05 01:53:07;;;;;;;;;;;11.00;99.90;;;;;;5055515;28;19927;-68
2022/05/05 01:55:33;;;;;;;;;;;11.00;99.90;;;;;;5057096;28;19929;-68
2022/05/05 01:58:01;;;;;;;;;;;10.90;99.90;;;;;;5048977;28;19964;-67
2022/05/05 02:00:28;;;;;;;;;;;10.90;99.90;;;;;;5053505;28;20478;-67
2022/05/05 02:02:58;;;;;;;;;;;10.90;99.90;;;;;;5047489;28;19921;-67
2022/05/05 02:05:24;;;;;;;;;;;10.90;99.90;;;;;;5055450;28;20134;-67
2022/05/05 02:07:51;;;;;;;;;;;10.90;99.90;;;;;;5053625;28;19924;-67
2022/05/05 02:10:20;;;;;;;;;;;10.90;99.90;;;;;;5056461;28;19920;-67
2022/05/05 02:12:48;;;;;;;;;;;10.90;99.90;;;;;;5048981;28;19921;-67
2022/05/05 02:15:14;;;;;;;;;;;10.90;99.90;;;;;;5055890;28;19921;-67
2022/05/05 02:17:44;;;;;;;;;;;10.90;99.90;;;;;;5052813;28;19987;-67
2022/05/05 02:20:12;;;;;;;;;;;11.00;99.90;;;;;;5054643;28;20016;-67
2022/05/05 02:22:39;;;;;;;;;;;10.90;99.90;;;;;;5050458;28;20125;-67
2022/05/05 02:25:06;;;;;;;;;;;11.00;99.90;;;;;;5056607;28;19927;-67
2022/05/05 02:27:45;;;;;;;;;;;11.00;99.90;;;;;;5056033;28;19951;-67
2022/05/05 02:30:12;;;;;;;;;;;11.10;99.90;;;;;;5054256;28;19920;-68
2022/05/05 02:32:42;;;;;;;;;;;11.10;99.90;;;;;;5055267;28;19924;-68
2022/05/05 02:35:08;;;;;;;;;;;11.20;99.90;;;;;;5056006;28;20023;-68
2022/05/05 02:40:23;;;;;;;;;;;11.20;99.90;;;;;;5053477;28;19920;-67
2022/05/05 02:42:49;;;;;;;;;;;11.20;99.90;;;;;;5054757;28;20008;-68
2022/05/05 02:45:16;;;;;;;;;;;11.20;99.90;;;;;;5055798;28;19921;-67
2022/05/05 02:47:46;;;;;;;;;;;11.10;99.90;;;;;;5054235;28;20419;-67
2022/05/05 02:50:13;;;;;;;;;;;11.10;99.90;;;;;;5055795;28;20380;-68
2022/05/05 02:52:40;;;;;;;;;;;11.10;99.90;;;;;;5054069;28;20348;-67
2022/05/05 02:55:07;;;;;;;;;;;11.10;99.90;;;;;;5051169;28;19920;-67
2022/05/05 02:57:33;;;;;;;;;;;11.10;99.90;;;;;;5085218;28;19924;-67
2022/05/05 03:00:00;;;;;;;;;;;11.20;99.90;;;;;;5053253;28;20007;-67
2022/05/05 03:02:27;;;;;;;;;;;11.20;99.90;;;;;;5050251;28;20030;-67
2022/05/05 03:04:54;;;;;;;;;;;11.20;99.90;;;;;;5052820;28;19924;-67
2022/05/05 03:07:22;;;;;;;;;;;11.20;99.90;;;;;;5052490;28;19924;-67
2022/05/05 03:09:48;;;;;;;;;;;11.20;99.90;;;;;;5050974;28;20015;-67
2022/05/05 03:12:16;;;;;;;;;;;11.20;99.90;;;;;;5051811;28;20014;-67
2022/05/05 03:14:47;;;;;;;;;;;11.10;99.90;;;;;;5050958;28;20046;-67
2022/05/05 03:17:14;;;;;;;;;;;11.10;99.90;;;;;;5050061;28;20368;-67
2022/05/05 03:19:41;;;;;;;;;;;11.10;99.90;;;;;;5051478;28;19920;-67
2022/05/05 03:22:08;;;;;;;;;;;11.10;99.90;;;;;;5052279;28;19921;-67
2022/05/05 03:24:37;;;;;;;;;;;11.10;99.90;;;;;;5049422;28;20279;-67
2022/05/05 03:27:04;;;;;;;;;;;11.10;99.90;;;;;;5051647;28;19931;-67
2022/05/05 03:29:32;;;;;;;;;;;11.10;99.90;;;;;;5046275;28;19921;-67
2022/05/05 03:31:59;;;;;;;;;;;11.00;99.90;;;;;;5053126;28;20490;-67
2022/05/05 03:34:26;;;;;;;;;;;11.00;99.90;;;;;;5051218;28;20440;-67
2022/05/05 03:36:52;;;;;;;;;;;11.00;99.90;;;;;;5049436;28;19925;-67
2022/05/05 03:39:19;;;;;;;;;;;11.00;99.90;;;;;;5051854;28;19939;-67
2022/05/05 03:41:46;;;;;;;;;;;11.00;99.90;;;;;;5050911;28;20030;-67
2022/05/05 03:44:13;;;;;;;;;;;10.90;99.90;;;;;;5052010;28;19966;-67
2022/05/05 03:46:39;;;;;;;;;;;10.90;99.90;;;;;;5047697;28;19921;-67
2022/05/05 03:49:06;;;;;;;;;;;10.90;99.90;;;;;;5046654;28;19936;-67
2022/05/05 03:51:33;;;;;;;;;;;10.90;99.90;;;;;;5047436;28;20003;-67
2022/05/05 03:53:59;;;;;;;;;;;10.90;99.90;;;;;;5049544;28;19928;-67
2022/05/05 03:56:26;;;;;;;;;;;10.90;99.90;;;;;;5053841;28;19978;-67
2022/05/05 03:58:53;;;;;;;;;;;10.90;99.90;;;;;;5057950;28;19920;-67
2022/05/05 04:01:21;;;;;;;;;;;10.90;99.90;;;;;;5060179;28;20338;-67
2022/05/05 04:03:48;;;;;;;;;;;10.90;99.90;;;;;;5065095;28;19928;-67
2022/05/05 04:06:16;;;;;;;;;;;10.90;99.90;;;;;;5056560;28;19924;-67
2022/05/05 04:08:43;;;;;;;;;;;10.80;99.90;;;;;;5060601;28;19921;-67
2022/05/05 04:11:10;;;;;;;;;;;10.90;99.90;;;;;;5060567;28;19960;-67
2022/05/05 04:13:37;;;;;;;;;;;10.90;99.90;;;;;;5064352;28;19928;-67
2022/05/05 04:16:08;;;;;;;;;;;10.90;99.90;;;;;;5060247;28;19928;-67
2022/05/05 04:18:35;;;;;;;;;;;10.90;99.90;;;;;;5054658;28;19956;-67
2022/05/05 04:21:02;;;;;;;;;;;11.00;99.90;;;;;;5047413;28;19943;-67
2022/05/05 04:23:29;;;;;;;;;;;10.90;99.90;;;;;;5050313;28;19920;-67
2022/05/05 04:26:09;;;;;;;;;;;11.00;99.90;;;;;;5051414;28;19932;-67
2022/05/05 04:28:35;;;;;;;;;;;11.00;99.90;;;;;;5045132;28;20012;-67
2022/05/05 04:31:03;;;;;;;;;;;11.00;99.90;;;;;;5058007;28;20371;-67
2022/05/05 04:33:33;;;;;;;;;;;11.10;99.90;;;;;;5073492;28;19921;-67
2022/05/05 04:35:59;;;;;;;;;;;11.10;99.90;;;;;;5049908;28;19920;-67
2022/05/05 04:38:26;;;;;;;;;;;11.10;99.90;;;;;;5037976;28;20544;-67
2022/05/05 04:40:56;;;;;;;;;;;11.10;99.90;;;;;;5046790;28;19920;-67
2022/05/05 04:43:22;;;;;;;;;;;11.20;99.90;;;;;;5050801;28;19920;-67
2022/05/05 04:45:49;;;;;;;;;;;11.20;99.90;;;;;;5047874;28;19927;-67
2022/05/05 04:48:16;;;;;;;;;;;11.20;99.90;;;;;;5047643;28;19947;-67
2022/05/05 04:50:43;;;;;;;;;;;11.20;99.90;;;;;;5049690;28;19921;-67
2022/05/05 04:53:10;;;;;;;;;;;11.10;99.90;;;;;;5049120;28;19921;-67
2022/05/05 04:55:36;;;;;;;;;;;11.10;99.90;;;;;;5047968;28;19927;-67
2022/05/05 04:58:03;;;;;;;;;;;11.10;99.90;;;;;;5045971;28;19920;-67
2022/05/05 05:00:30;;;;;;;;;;;11.10;99.90;;;;;;5033881;28;19935;-67
2022/05/05 05:02:57;;;;;;;;;;;11.10;99.90;;;;;;5076176;28;20019;-67
2022/05/05 05:05:24;;;;;;;;;;;11.10;99.90;;;;;;5045795;28;19921;-67
2022/05/05 05:07:50;;;;;;;;;;;11.10;99.90;;;;;;5047556;28;19927;-67
2022/05/05 05:10:17;;;;;;;;;;;11.20;99.90;;;;;;5050030;28;19920;-67
2022/05/05 05:12:44;;;;;;;;;;;11.20;99.90;;;;;;5042558;28;19974;-67
2022/05/05 05:15:11;;;;;;;;;;;11.20;99.90;;;;;;5046372;28;19931;-67
2022/05/05 05:17:38;;;;;;;;;;;11.20;99.90;;;;;;5040725;28;19920;-67
2022/05/05 05:20:09;;;;;;;;;;;11.30;99.90;;;;;;5041884;28;19933;-67
2022/05/05 05:22:37;;;;;;;;;;;11.30;99.90;;;;;;5047418;28;20441;-67
2022/05/05 05:25:03;;;;;;;;;;;11.40;99.90;;;;;;5043434;28;20387;-68
2022/05/05 05:27:30;;;;;;;;;;;11.50;99.90;;;;;;5043026;28;19931;-67
2022/05/05 05:29:57;;;;;;;;;;;11.50;99.90;;;;;;5059407;28;19924;-67
2022/05/05 05:32:23;;;;;;;;;;;11.60;99.90;;;;;;5048407;28;19921;-67
2022/05/05 05:34:52;;;;;;;;;;;11.70;99.90;;;;;;5048008;28;19920;-67
2022/05/05 05:37:19;;;;;;;;;;;11.80;99.90;;;;;;5042922;28;19920;-67
2022/05/05 05:39:46;;;;;;;;;;;11.90;99.90;;;;;;5046428;28;19924;-67
2022/05/05 05:42:12;;;;;;;;;;;12.00;99.90;;;;;;5043562;28;19920;-68
2022/05/05 05:44:39;;;;;;;;;;;12.20;99.90;;;;;;5045022;28;20451;-67
2022/05/05 05:47:07;;;;;;;;;;;12.30;99.90;;;;;;5045134;28;19921;-67
2022/05/05 05:49:34;;;;;;;;;;;12.40;99.90;;;;;;5049062;28;19920;-67
2022/05/05 05:52:01;;;;;;;;;;;12.40;99.90;;;;;;5047146;28;20004;-68
2022/05/05 05:54:27;;;;;;;;;;;12.50;99.90;;;;;;5048984;28;19939;-67
2022/05/05 05:56:54;;;;;;;;;;;12.50;99.90;;;;;;5037483;28;19924;-68
2022/05/05 05:59:21;;;;;;;;;;;12.50;99.90;;;;;;5047990;28;19920;-67
2022/05/05 06:04:33;;;;;;;;;;;12.30;99.90;;;;;;5043025;28;19928;-68
2022/05/05 06:07:00;;;;;;;;;;;12.30;99.90;;;;;;5043941;28;20192;-68
2022/05/05 06:09:27;;;;;;;;;;;12.20;99.90;;;;;;5050365;28;20040;-67
2022/05/05 06:11:54;;;;;;;;;;;12.20;99.90;;;;;;5044634;28;19921;-68
2022/05/05 06:14:20;;;;;;;;;;;12.20;99.90;;;;;;5038442;28;20016;-67
2022/05/05 06:16:47;;;;;;;;;;;12.10;99.90;;;;;;5040835;28;20019;-67
2022/05/05 06:19:14;;;;;;;;;;;12.00;99.90;;;;;;5045906;28;19966;-67
2022/05/05 06:21:41;;;;;;;;;;;12.00;99.90;;;;;;5040656;28;19929;-67
2022/05/05 06:24:10;;;;;;;;;;;12.00;99.90;;;;;;5041299;28;19929;-67
2022/05/05 06:26:36;;;;;;;;;;;12.10;99.90;;;;;;5040027;28;20015;-68
2022/05/05 06:29:04;;;;;;;;;;;12.20;99.90;;;;;;5045655;28;19920;-67
2022/05/05 06:31:31;;;;;;;;;;;12.20;99.90;;;;;;5046921;28;19920;-67
2022/05/05 06:33:58;;;;;;;;;;;12.20;99.90;;;;;;5048253;28;20633;-67
2022/05/05 06:36:24;;;;;;;;;;;12.20;99.90;;;;;;5046988;28;20655;-67
2022/05/05 06:38:52;;;;;;;;;;;12.30;99.90;;;;;;5049271;28;20461;-67
2022/05/05 06:41:20;;;;;;;;;;;12.30;99.90;;;;;;5052677;28;19925;-67
2022/05/05 06:43:50;;;;;;;;;;;12.40;99.90;;;;;;5044746;28;19929;-67
2022/05/05 06:46:19;;;;;;;;;;;12.40;99.90;;;;;;5046059;28;19920;-67
2022/05/05 06:48:56;;;;;;;;;;;12.40;99.90;;;;;;5042671;28;19932;-67
2022/05/05 06:51:22;;;;;;;;;;;12.40;99.90;;;;;;5049933;28;19921;-66
2022/05/05 06:53:49;;;;;;;;;;;12.50;99.90;;;;;;5044570;28;19927;-66
2022/05/05 06:56:19;;;;;;;;;;;12.60;99.90;;;;;;5048967;28;19928;-66
2022/05/05 06:58:45;;;;;;;;;;;12.70;99.90;;;;;;5048022;28;20423;-66
2022/05/05 07:06:46;;;;;;;;;;;12.90;99.90;;;;;;5047792;28;19947;-66
2022/05/05 07:11:59;;;;;;;;;;;12.90;99.90;;;;;;5042820;28;19921;-67
2022/05/05 07:14:28;;;;;;;;;;;12.90;99.90;;;;;;5049615;28;19921;-67
2022/05/05 07:16:55;;;;;;;;;;;12.80;99.90;;;;;;5049309;28;19927;-67
2022/05/05 07:19:27;;;;;;;;;;;12.70;99.90;;;;;;5036568;28;19928;-67
2022/05/05 07:21:54;;;;;;;;;;;12.70;99.90;;;;;;5045718;28;19929;-67
2022/05/05 07:24:20;;;;;;;;;;;12.60;99.90;;;;;;5044846;28;19928;-67
2022/05/05 07:26:47;;;;;;;;;;;12.50;99.90;;;;;;5042646;28;20298;-67
2022/05/05 07:29:15;;;;;;;;;;;12.40;99.90;;;;;;5046046;28;19931;-67
2022/05/05 07:31:42;;;;;;;;;;;12.40;99.90;;;;;;5049646;28;19960;-67
2022/05/05 07:34:08;;;;;;;;;;;12.30;99.90;;;;;;5051165;28;19921;-67
2022/05/05 07:36:37;;;;;;;;;;;12.20;99.90;;;;;;5050419;28;19920;-66
2022/05/05 07:39:04;;;;;;;;;;;12.20;99.90;;;;;;5048104;28;20402;-66
2022/05/05 07:41:33;;;;;;;;;;;12.10;99.90;;;;;;5049077;28;20007;-66
2022/05/05 07:44:01;;;;;;;;;;;12.10;99.90;;;;;;5045845;28;20319;-67
2022/05/05 07:46:27;;;;;;;;;;;12.10;99.90;;;;;;5042638;28;19935;-67
2022/05/05 07:48:54;;;;;;;;;;;12.10;99.90;;;;;;5048563;28;19921;-67
2022/05/05 07:51:21;;;;;;;;;;;12.10;99.90;;;;;;5045952;28;20433;-67
2022/05/05 07:54:34;;;;;;;;;;;12.10;99.90;;;;;;5042827;28;20303;-67
2022/05/05 07:56:34;;;;;;;;;;;12.10;99.90;;;;;;5048406;28;19924;-67
2022/05/05 07:59:01;;;;;;;;;;;12.20;99.90;;;;;;5039730;28;19921;-66
2022/05/05 08:01:30;;;;;;;;;;;12.30;99.90;;;;;;5046404;28;20587;-67
2022/05/05 08:03:58;;;;;;;;;;;12.40;99.90;;;;;;5052943;28;19930;-67
2022/05/05 08:06:27;;;;;;;;;;;12.50;99.90;;;;;;5045132;28;19971;-67
2022/05/05 08:08:54;;;;;;;;;;;12.40;99.90;;;;;;5044827;28;20303;-67
2022/05/05 08:11:21;;;;;;;;;;;12.50;99.90;;;;;;5040608;28;19925;-67
2022/05/05 08:13:47;;;;;;;;;;;12.70;99.90;;;;;;5046722;28;19929;-66
2022/05/05 08:16:14;;;;;;;;;;;12.70;99.90;;;;;;5043494;28;19927;-67
2022/05/05 08:18:41;;;;;;;;;;;12.80;99.90;;;;;;5042501;28;19924;-67
2022/05/05 08:21:10;;;;;;;;;;;12.80;99.90;;;;;;5045558;28;19924;-67
2022/05/05 08:23:37;;;;;;;;;;;12.80;99.90;;;;;;5075511;28;19947;-67
2022/05/05 08:28:50;;;;;;;;;;;13.00;99.90;;;;;;5042913;28;19927;-67
2022/05/05 08:31:17;;;;;;;;;;;13.30;99.90;;;;;;5042584;28;19935;-67
2022/05/05 08:33:44;;;;;;;;;;;13.50;99.90;;;;;;5044281;28;19932;-67
2022/05/05 08:36:11;;;;;;;;;;;13.70;99.90;;;;;;5042330;28;19971;-67
2022/05/05 08:38:38;;;;;;;;;;;14.00;99.90;;;;;;5045661;28;19920;-67
2022/05/05 08:41:08;;;;;;;;;;;14.30;99.90;;;;;;5042060;28;20060;-67
2022/05/05 08:43:35;;;;;;;;;;;14.50;99.90;;;;;;5040963;28;19921;-67
2022/05/05 08:46:28;;;;;;;;;;;14.80;99.90;;;;;;5042176;28;19931;-67
2022/05/05 08:48:58;;;;;;;;;;;15.20;99.90;;;;;;5043138;28;19921;-67
2022/05/05 08:51:25;;;;;;;;;;;15.40;99.90;;;;;;5043288;28;19927;-67
2022/05/05 08:53:53;;;;;;;;;;;15.70;99.90;;;;;;5044802;28;20319;-67
2022/05/05 08:56:19;;;;;;;;;;;16.00;99.90;;;;;;5046576;28;19925;-67
2022/05/05 08:58:46;;;;;;;;;;;16.30;99.90;;;;;;5048774;28;20387;-67
2022/05/05 09:01:13;;;;;;;;;;;16.80;99.90;;;;;;5036743;28;19928;-67
2022/05/05 09:03:39;;;;;;;;;;;17.20;99.90;;;;;;5046320;28;19931;-67
2022/05/05 09:06:06;;;;;;;;;;;17.50;99.90;;;;;;5041613;28;19928;-68
2022/05/05 09:08:33;;;;;;;;;;;17.50;99.90;;;;;;5042580;28;19931;-67
2022/05/05 09:11:04;;;;;;;;;;;17.70;99.90;;;;;;5047160;28;19927;-67
2022/05/05 09:13:32;;;;;;;;;;;17.90;99.90;;;;;;5047620;28;20007;-67
2022/05/05 09:16:03;;;;;;;;;;;17.90;99.90;;;;;;5042757;28;19920;-67
2022/05/05 09:18:36;;;;;;;;;;;17.90;99.90;;;;;;5043167;28;20578;-68
2022/05/05 09:21:07;;;;;;;;;;;17.80;99.90;;;;;;5042430;28;20589;-67
2022/05/05 09:24:34;;;;;;;;;;;17.70;99.90;;;;;;5044321;28;19924;-67
2022/05/05 09:26:30;;;;;;;;;;;17.60;99.90;;;;;;5043165;28;19928;-67
2022/05/05 09:28:57;;;;;;;;;;;17.40;99.90;;;;;;5045244;28;19925;-67
2022/05/05 09:31:24;;;;;;;;;;;17.40;99.90;;;;;;5078570;28;19964;-68
2022/05/05 09:33:51;;;;;;;;;;;17.40;99.90;;;;;;5044998;28;19928;-68
2022/05/05 09:36:26;;;;;;;;;;;17.20;99.90;;;;;;5044298;28;19962;-66
2022/05/05 09:38:56;;;;;;;;;;;17.30;99.90;;;;;;5042604;28;20015;-66
2022/05/05 09:41:24;;;;;;;;;;;17.40;99.90;;;;;;5047900;28;20015;-66
2022/05/05 09:43:53;;;;;;;;;;;17.70;99.90;;;;;;5046935;28;19921;-66
2022/05/05 09:46:22;;;;;;;;;;;17.70;99.90;;;;;;5044011;28;20348;-66
2022/05/05 09:48:49;;;;;;;;;;;17.50;99.90;;;;;;5048669;28;19928;-66
2022/05/05 09:51:16;;;;;;;;;;;17.70;99.90;;;;;;5046340;28;19924;-66
2022/05/05 09:59:19;;;;;;;;;;;18.80;99.90;;;;;;5040111;28;19921;-67
2022/05/05 10:01:50;;;;;;;;;;;18.70;99.90;;;;;;5045663;28;20365;-66
2022/05/05 10:04:18;;;;;;;;;;;18.60;99.90;;;;;;5048953;28;19921;-67
2022/05/05 10:06:45;;;;;;;;;;;18.90;99.90;;;;;;5048825;28;19971;-67
2022/05/05 10:09:13;;;;;;;;;;;19.50;99.90;;;;;;5045938;28;19932;-67
2022/05/05 10:11:40;;;;;;;;;;;20.30;99.90;;;;;;5049611;28;19939;-67
2022/05/05 10:14:08;;;;;;;;;;;21.10;99.90;;;;;;5051985;28;20003;-64
2022/05/05 10:16:35;;;;;;;;;;;;;;;;;;5048116;28;19920;-66
2022/05/05 10:19:03;;;;;;;;;;;;;;;;;;5050098;28;19986;-67
2022/05/05 10:21:30;;;;;;;;;;;;;;;;;;5048699;28;20378;-66
2022/05/05 10:23:57;;;;;;;;;;;;;;;;;;5050694;28;19920;-66
2022/05/05 10:26:24;;;;;;;;;;;;;;;;;;5050116;28;19927;-75
2022/05/05 10:28:52;;;;;;;;;;;23.30;99.90;;;;;;5052380;28;20603;-76
2022/05/05 10:31:31;;;;;;;;;;;23.30;99.90;;;;;;5053286;28;19927;-77
2022/05/05 10:34:08;;;;;;;;;;;24.00;99.90;;;;;;5051705;28;19924;-75
2022/05/05 10:36:35;;;;;;;;;;;24.50;99.90;;;;;;5056901;28;19929;-73
2022/05/05 10:39:18;;;;;;;;;;;25.00;99.90;;;;;;5047109;28;20011;-75
2022/05/05 10:41:44;;;;;;;;;;;25.20;99.90;;;;;;5078586;28;20364;-76
2022/05/05 10:44:17;;;;;;;;;;;25.00;99.90;;;;;;5049208;28;20023;-76
2022/05/05 10:47:03;;;;;;;;;;;24.70;99.90;;;;;;5050260;28;19956;-73
2022/05/05 10:49:30;;;;;;;;;;;24.00;99.90;;;;;;5048041;28;20008;-74
2022/05/05 10:52:12;;;;;;;;;;;23.60;99.90;;;;;;5048682;28;19925;-74
2022/05/05 10:54:48;;;;;;;;;;;23.50;99.90;;;;;;5046239;28;19998;-76
2022/05/05 10:57:27;;;;;;;;;;;23.40;99.90;;;;;;5049021;28;20252;-75
2022/05/05 11:00:14;;;;;;;;;;;23.20;99.90;;;;;;5049939;28;19956;-76
2022/05/05 11:03:00;;;;;;;;;;;23.00;99.90;;;;;;5045028;28;20006;-77
2022/05/05 11:05:30;;;;;;;;;;;23.60;99.90;;;;;;5051335;28;19979;-76
2022/05/05 11:08:09;;;;;;;;;;;24.30;99.90;;;;;;5053590;28;20011;-76
2022/05/05 11:10:46;;;;;;;;;;;24.60;99.90;;;;;;5048136;28;19927;-77
2022/05/05 11:13:32;;;;;;;;;;;24.10;99.30;;;;;;5050828;28;19939;-75
2022/05/05 11:22:06;;;;;;;;;;;25.00;99.90;;;;;;5049442;28;19959;-72
2022/05/05 11:24:33;;;;;;;;;;;25.80;98.80;;;;;;5037446;28;19956;-73
2022/05/05 11:27:03;;;;;;;;;;;25.40;98.10;;;;;;5046462;28;19921;-75
2022/05/05 11:29:30;;;;;;;;;;;25.10;99.00;;;;;;5049384;28;19928;-75
2022/05/05 11:31:58;;;;;;;;;;;25.10;98.50;;;;;;5043207;28;19929;-75
2022/05/05 11:34:34;;;;;;;;;;;25.40;99.90;;;;;;5047486;28;20392;-76
2022/05/05 11:37:02;;;;;;;;;;;25.70;98.50;;;;;;5045800;28;19929;-75
2022/05/05 11:39:29;;;;;;;;;;;26.30;97.80;;;;;;5046631;28;20012;-77
2022/05/05 11:41:57;;;;;;;;;;;25.90;97.60;;;;;;5047363;28;19958;-76
2022/05/05 11:44:25;;;;;;;;;;;25.40;98.40;;;;;;5045707;28;19929;-76
2022/05/05 11:46:53;;;;;;;;;;;25.00;98.20;;;;;;5045162;28;19931;-73
2022/05/05 11:49:20;;;;;;;;;;;24.10;97.70;;;;;;5048184;28;20007;-77
2022/05/05 11:51:47;;;;;;;;;;;24.00;97.70;;;;;;5044949;28;19927;-73
2022/05/05 11:54:23;;;;;;;;;;;24.00;97.80;;;;;;5047708;28;19929;-74
2022/05/05 11:56:51;;;;;;;;;;;23.90;98.10;;;;;;5043150;28;20011;-75
2022/05/05 12:02:17;;;;;;;;;;;22.80;98.20;;;;;;5048687;28;20399;-75
2022/05/05 12:04:45;;;;;;;;;;;22.60;98.50;;;;;;5040624;28;22404;-71
2022/05/05 12:07:19;;;;;;;;;;;22.80;97.90;;;;;;5032354;28;20048;-73
2022/05/05 12:09:47;;;;;;;;;;;22.80;98.60;;;;;;5044267;28;19927;-75
2022/05/05 12:12:24;;;;;;;;;;;23.10;98.60;;;;;;5046740;28;19924;-74
2022/05/05 12:14:52;;;;;;;;;;;22.80;98.50;;;;;;5053609;28;19927;-74
2022/05/05 12:17:21;;;;;;;;;;;22.60;98.20;;;;;;5046912;28;19921;-75
2022/05/05 12:19:49;;;;;;;;;;;22.80;98.70;;;;;;5048657;28;19925;-75
2022/05/05 12:22:20;;;;;;;;;;;23.40;99.00;;;;;;5046227;28;20015;-76
2022/05/05 12:24:47;;;;;;;;;;;23.80;98.30;;;;;;5043024;28;20367;-76
2022/05/05 12:27:14;;;;;;;;;;;24.20;98.20;;;;;;5045326;28;20030;-76
2022/05/05 12:29:42;;;;;;;;;;;24.30;98.10;;;;;;5052478;28;19924;-72
2022/05/05 12:32:13;;;;;;;;;;;23.80;98.60;;;;;;5045849;28;19921;-74
2022/05/05 12:34:40;;;;;;;;;;;23.80;96.90;;;;;;5053698;28;19927;-74
2022/05/05 12:37:07;;;;;;;;;;;23.50;97.40;;;;;;5045533;28;19979;-67
2022/05/05 12:39:34;;;;;;;;;;;23.30;97.70;;;;;;5048853;28;19995;-66
2022/05/05 12:42:01;;;;;;;;;;;23.40;97.30;;;;;;5042762;28;19921;-66
2022/05/05 12:44:32;;;;;;;;;;;22.80;96.70;;;;;;5042674;28;20039;-66
2022/05/05 12:47:08;;;;;;;;;;;22.60;96.70;;;;;;5049576;28;19951;-66
2022/05/05 12:49:44;;;;;;;;;;;22.60;97.00;;;;;;5043035;28;19933;-66
2022/05/05 12:59:36;;;;;;;;;;;22.00;97.00;;;;;;5053271;28;19921;-66
2022/05/05 13:00:33;;;;;;;;;;;21.30;96.30;;;;;;5038700;28;19975;-67
2022/05/05 13:03:21;;;;;;;;;;;21.60;96.40;;;;;;5046923;28;20643;-66
2022/05/05 13:05:48;;;;;;;;;;;21.50;96.10;;;;;;5045628;28;20674;-66
2022/05/05 13:08:35;;;;;;;;;;;21.40;96.50;;;;;;5066516;28;19927;-66
2022/05/05 13:11:02;;;;;;;;;;;21.30;96.40;;;;;;5045060;28;19921;-66
2022/05/05 13:13:28;;;;;;;;;;;20.90;95.70;;;;;;5043226;28;19921;-66
2022/05/05 13:15:55;;;;;;;;;;;20.90;96.80;;;;;;5046397;28;20015;-66
2022/05/05 13:18:22;;;;;;;;;;;21.10;95.80;;;;;;5045583;28;19920;-66
2022/05/05 13:20:49;;;;;;;;;;;21.00;96.30;;;;;;5048545;28;19931;-66
2022/05/05 13:23:15;;;;;;;;;;;20.90;96.00;;;;;;5035258;28;19920;-66
2022/05/05 13:25:42;;;;;;;;;;;20.80;96.40;;;;;;5049762;28;20431;-66
2022/05/05 13:28:08;;;;;;;;;;;21.10;96.70;;;;;;5048441;28;19925;-67
2022/05/05 13:30:35;;;;;;;;;;;21.30;96.30;;;;;;5050631;28;19920;-66
2022/05/05 13:33:09;;;;;;;;;;;21.50;96.10;;;;;;5049371;28;19927;-66
2022/05/05 13:35:36;;;;;;;;;;;21.70;96.00;;;;;;5082098;28;19920;-68
2022/05/05 13:38:03;;;;;;;;;;;21.70;95.40;;;;;;5048668;28;19928;-66
2022/05/05 13:40:29;;;;;;;;;;;21.70;95.90;;;;;;5050292;28;19927;-67
2022/05/05 13:42:56;;;;;;;;;;;21.60;95.90;;;;;;5049998;28;20396;-67
2022/05/05 13:45:26;;;;;;;;;;;21.40;96.30;;;;;;5045937;28;20288;-67
2022/05/05 13:47:55;;;;;;;;;;;21.10;96.20;;;;;;5044003;28;19925;-66
2022/05/05 13:50:22;;;;;;;;;;;20.90;95.80;;;;;;5049225;28;19925;-66
2022/05/05 13:52:49;;;;;;;;;;;20.70;96.20;;;;;;5048030;28;19933;-67
2022/05/05 13:55:15;;;;;;;;;;;20.60;96.50;;;;;;5056681;28;19925;-67
2022/05/05 13:57:43;;;;;;;;;;;20.50;96.70;;;;;;5047436;28;19933;-66
2022/05/05 14:00:11;;;;;;;;;;;20.30;96.50;;;;;;5048218;28;20384;-67
2022/05/05 14:02:41;;;;;;;;;;;20.20;96.30;;;;;;5045400;28;19943;-67
2022/05/05 14:05:08;;;;;;;;;;;20.10;96.80;;;;;;5049040;28;19929;-67
2022/05/05 14:13:07;;;;;;;;;;;20.40;97.40;;;;;;5040524;28;19925;-67
2022/05/05 14:15:34;;;;;;;;;;;20.40;97.20;;;;;;5049782;28;20024;-66
2022/05/05 14:18:00;;;;;;;;;;;20.40;97.50;;;;;;5046086;28;19999;-66
2022/05/05 14:20:29;;;;;;;;;;;20.40;97.40;;;;;;5050561;28;19948;-66
2022/05/05 14:22:56;;;;;;;;;;;20.30;97.40;;;;;;5047789;28;19924;-66
2022/05/05 14:25:23;;;;;;;;;;;20.20;97.30;;;;;;5046555;28;19931;-66
2022/05/05 14:27:50;;;;;;;;;;;20.10;97.50;;;;;;5047300;28;19925;-66
2022/05/05 14:30:17;;;;;;;;;;;19.90;97.50;;;;;;5049060;28;19999;-66
2022/05/05 14:32:43;;;;;;;;;;;19.90;97.70;;;;;;5047674;28;19995;-66
2022/05/05 14:35:10;;;;;;;;;;;19.90;97.50;;;;;;5046781;28;19931;-66
2022/05/05 14:37:37;;;;;;;;;;;19.80;98.20;;;;;;5046767;28;19931;-66
2022/05/05 14:40:04;;;;;;;;;;;19.90;98.20;;;;;;5053261;28;20356;-66
2022/05/05 14:42:34;;;;;;;;;;;20.20;98.50;;;;;;5049878;28;19933;-66
2022/05/05 14:45:01;;;;;;;;;;;20.50;98.10;;;;;;5047352;28;19931;-66
2022/05/05 14:47:28;;;;;;;;;;;20.80;97.70;;;;;;5047211;28;20003;-66
2022/05/05 14:49:55;;;;;;;;;;;21.10;97.80;;;;;;5050155;28;19925;-67
2022/05/05 14:52:25;;;;;;;;;;;21.20;97.40;;;;;;5045275;28;19925;-66
2022/05/05 14:54:52;;;;;;;;;;;21.30;97.40;;;;;;5050863;28;20384;-66
2022/05/05 14:57:19;;;;;;;;;;;21.30;97.50;;;;;;5048280;28;19933;-66
2022/05/05 14:59:46;;;;;;;;;;;21.30;97.60;;;;;;5043086;28;19972;-66
2022/05/05 15:02:14;;;;;;;;;;;21.40;97.30;;;;;;5065833;28;19929;-66
2022/05/05 15:04:47;;;;;;;;;;;21.50;97.40;;;;;;5051677;28;19931;-66
2022/05/05 15:07:14;;;;;;;;;;;21.30;97.20;;;;;;5051002;28;19931;-66
2022/05/05 15:09:41;;;;;;;;;;;20.90;97.40;;;;;;5048878;28;19941;-66
2022/05/05 15:12:08;;;;;;;;;;;20.90;98.00;;;;;;5049176;28;19928;-67
2022/05/05 15:14:35;;;;;;;;;;;21.00;97.70;;;;;;5050412;28;20012;-67